Wasco, California
Current Conditions -  °F | °C
As of 6:54 PM on Thursday 27 Nov 2014 (Local Time) from KBFL Reporting Station
Haze Haze  
Wind Chill: 60°   Ceiling: Unl
Heat Index: 60°   Visibility: 5mi
Dew Point: 42°   Wind: 0mph
Humidity: 51%   Direction: NA
Pressure: 30.08"   Gusts: NA
Location:  35.59°N, 119.33°W
Report Text: KBFL 280254Z 00000KT 5SM HZ CLR 16/06 A3008 RMK AO2 SLP183 T01560056 58001
Loading
Personal Weather Stations






























Interactive Weather Map New forecast layout! Learn more

10-Day Weather Forecast

Advertisements
Track Severe Weather on mobile